Time;durP1;ratioP1;P1;durP2;ratioP2;P2;SDS_P1;SDS_P2;PMS_P1;PMS_P2;Temp;Humidity;BMP_temperature;BMP_pressure;BME280_temperature;BME280_humidity;BME280_pressure;Samples;Min_cycle;Max_cycle;Signal;HPM_P1;HPM_P2
2022/05/14 00:01:08;;;;;;;8.93;6.00;;;;;;;11.52;72.36;100737.23;1696606;84;27520;-73
2022/05/14 00:03:38;;;;;;;10.63;7.03;;;;;;;11.51;72.30;100737.41;1696226;84;25771;-73
2022/05/14 00:06:07;;;;;;;9.10;6.67;;;;;;;11.48;72.37;100735.12;1696195;83;25871;-73
2022/05/14 00:08:34;;;;;;;7.70;6.87;;;;;;;11.45;72.33;100736.32;1696818;84;26545;-74
2022/05/14 00:13:45;;;;;;;6.28;5.47;;;;;;;11.46;72.26;100733.95;1690164;84;27479;-73
2022/05/14 00:16:14;;;;;;;8.10;6.37;;;;;;;11.42;72.27;100732.66;1715421;83;26545;-73
2022/05/14 00:18:43;;;;;;;9.70;5.85;;;;;;;11.39;72.34;100733.56;1694685;84;25752;-73
2022/05/14 00:21:10;;;;;;;10.30;6.70;;;;;;;11.37;72.39;100738.28;1715630;83;25742;-73
2022/05/14 00:23:37;;;;;;;7.78;5.92;;;;;;;11.32;72.28;100739.34;1694301;83;25755;-73
2022/05/14 00:26:04;;;;;;;7.87;5.92;;;;;;;11.25;72.50;100739.27;1715462;83;28122;-73
2022/05/14 00:28:31;;;;;;;8.65;6.25;;;;;;;11.18;72.37;100730.83;1695070;84;25955;-73
2022/05/14 00:30:57;;;;;;;8.13;6.53;;;;;;;11.18;72.52;100732.17;1725956;83;25814;-73
2022/05/14 00:33:24;;;;;;;7.42;6.05;;;;;;;11.15;72.64;100742.75;1725224;83;26035;-73
2022/05/14 00:35:50;;;;;;;10.45;6.75;;;;;;;11.15;72.69;100741.91;1689674;84;25763;-73
2022/05/14 00:38:17;;;;;;;10.28;6.33;;;;;;;11.15;72.76;100740.08;1715548;83;27453;-73
2022/05/14 00:40:48;;;;;;;8.68;5.62;;;;;;;11.17;72.83;100741.22;1703991;83;25919;-73
2022/05/14 00:43:15;;;;;;;8.03;5.65;;;;;;;11.20;72.76;100740.86;1714308;83;26436;-73
2022/05/14 00:45:48;;;;;;;7.53;5.80;;;;;;;11.19;73.06;100733.31;1711662;82;26496;-73
2022/05/14 00:48:14;;;;;;;8.58;5.85;;;;;;;11.15;73.01;100744.09;1694494;84;25971;-73
2022/05/14 00:50:48;;;;;;;7.60;6.47;;;;;;;11.12;73.15;100749.02;1703191;83;27642;-73
2022/05/14 00:53:39;;;;;;;6.00;5.40;;;;;;;11.09;73.12;100743.51;1694470;84;26532;-73
2022/05/14 00:56:09;;;;;;;7.30;5.92;;;;;;;11.07;73.25;100738.84;1712014;82;26211;-74
2022/05/14 00:59:07;;;;;;;8.20;5.37;;;;;;;11.06;72.98;100742.53;1686671;84;25881;-73
2022/05/14 01:01:37;;;;;;;6.60;5.00;;;;;;;11.00;72.94;100745.12;1721871;83;26419;-73
2022/05/14 01:04:05;;;;;;;8.35;5.47;;;;;;;10.91;73.03;100745.72;1723719;83;27689;-73
2022/05/14 01:06:35;;;;;;;7.62;5.17;;;;;;;10.85;73.17;100749.15;1704971;83;25833;-73
2022/05/14 01:09:04;;;;;;;9.55;5.55;;;;;;;10.85;73.21;100741.11;1698505;83;25910;-73
2022/05/14 01:11:34;;;;;;;9.25;5.47;;;;;;;10.81;73.21;100739.32;1669194;84;26592;-73
2022/05/14 01:14:01;;;;;;;8.33;5.53;;;;;;;10.79;73.19;100744.53;1722006;83;25919;-74
2022/05/14 01:16:30;;;;;;;8.38;5.80;;;;;;;10.79;73.23;100753.41;1672528;83;28377;-73
2022/05/14 01:18:56;;;;;;;9.83;5.40;;;;;;;10.75;73.33;100745.42;1700355;83;25753;-73
2022/05/14 01:22:09;;;;;;;8.85;5.35;;;;;;;10.72;73.36;100744.94;1723988;83;26345;-73
2022/05/14 01:27:49;;;;;;;8.75;5.60;;;;;;;10.61;73.37;100740.02;1724098;83;26448;-73
2022/05/14 01:30:16;;;;;;;10.20;5.42;;;;;;;10.58;73.38;100741.25;1693464;83;28086;-73
2022/05/14 01:33:04;;;;;;;7.60;4.95;;;;;;;10.54;73.40;100735.91;1725308;83;25788;-73
2022/05/14 01:35:17;;;;;;;8.33;5.50;;;;;;;10.50;73.60;100743.18;1683390;83;25372;-73
2022/05/14 01:37:44;;;;;;;10.98;5.60;;;;;;;10.42;73.71;100741.39;1663681;84;25786;-73
2022/05/14 01:40:11;;;;;;;8.18;5.45;;;;;;;10.38;73.72;100740.59;1663890;84;26122;-73
2022/05/14 01:42:38;;;;;;;7.72;5.45;;;;;;;10.36;73.78;100742.13;1710074;83;27461;-73
2022/05/14 01:45:06;;;;;;;9.33;5.28;;;;;;;10.36;73.93;100738.11;1682822;84;25769;-73
2022/05/14 01:47:35;;;;;;;8.58;5.80;;;;;;;10.34;73.95;100733.45;1676120;84;25787;-73
2022/05/14 01:50:02;;;;;;;8.93;5.80;;;;;;;10.33;74.08;100737.12;1723096;83;25752;-73
2022/05/14 01:52:29;;;;;;;6.80;5.28;;;;;;;10.32;74.17;100736.81;1691139;83;25796;-73
2022/05/14 01:54:55;;;;;;;10.68;6.10;;;;;;;10.30;74.25;100741.52;1722924;83;28261;-73
2022/05/14 01:57:22;;;;;;;7.12;5.45;;;;;;;10.29;74.45;100730.97;1673606;84;26562;-74
2022/05/14 01:59:48;;;;;;;8.23;4.92;;;;;;;10.27;74.47;100725.81;1723435;83;25808;-74
2022/05/14 02:02:15;;;;;;;10.50;6.42;;;;;;;10.29;74.61;100727.80;1667733;84;26344;-73
2022/05/14 02:04:41;;;;;;;9.13;5.30;;;;;;;10.30;74.84;100741.52;1694784;84;25839;-73
2022/05/14 02:07:08;;;;;;;8.70;5.67;;;;;;;10.32;74.74;100739.99;1725461;83;27494;-73
2022/05/14 02:09:34;;;;;;;8.70;5.50;;;;;;;10.36;74.79;100743.97;1719321;83;25947;-73
2022/05/14 02:12:04;;;;;;;9.68;6.40;;;;;;;10.37;75.04;100739.76;1722675;83;26441;-73
2022/05/14 02:14:32;;;;;;;8.28;5.35;;;;;;;10.36;74.77;100741.29;1725021;81;25964;-73
2022/05/14 02:16:58;;;;;;;9.08;6.05;;;;;;;10.37;75.06;100738.42;1725348;83;25716;-74
2022/05/14 02:19:25;;;;;;;9.18;6.60;;;;;;;10.38;75.27;100740.10;1721271;83;28257;-73
2022/05/14 02:21:51;;;;;;;12.18;6.00;;;;;;;10.37;75.18;100740.29;1721109;83;25822;-73
2022/05/14 02:24:17;;;;;;;7.90;5.83;;;;;;;10.39;75.34;100740.94;1666084;84;26314;-73
2022/05/14 02:26:44;;;;;;;16.42;10.55;;;;;;;10.40;75.57;100733.22;1701226;83;25921;-73
2022/05/14 02:29:10;;;;;;;11.57;6.85;;;;;;;10.41;75.43;100734.39;1713640;83;25724;-73
2022/05/14 02:31:36;;;;;;;7.60;5.40;;;;;;;10.41;75.90;100735.73;1713654;83;28269;-73
2022/05/14 02:34:03;;;;;;;12.60;5.83;;;;;;;10.43;75.46;100728.84;1724827;83;25894;-73
2022/05/14 02:36:29;;;;;;;8.13;5.92;;;;;;;10.46;75.36;100719.92;1708417;83;25952;-73
2022/05/14 02:38:55;;;;;;;7.87;5.60;;;;;;;10.52;75.33;100719.19;1708767;83;26263;-73
2022/05/14 02:41:21;;;;;;;8.93;6.42;;;;;;;10.55;75.21;100725.53;1719854;83;25757;-73
2022/05/14 02:43:47;;;;;;;7.97;5.78;;;;;;;10.57;75.30;100720.83;1717770;83;27710;-73
2022/05/14 02:46:14;;;;;;;10.93;5.62;;;;;;;10.57;75.09;100724.84;1722162;83;25829;-73
2022/05/14 02:48:41;;;;;;;10.40;5.92;;;;;;;10.57;75.13;100721.33;1725164;83;25994;-73
2022/05/14 02:51:07;;;;;;;8.98;6.05;;;;;;;10.58;75.10;100720.33;1725522;83;25864;-73
2022/05/14 02:53:34;;;;;;;6.03;5.33;;;;;;;10.61;75.05;100718.59;1725421;83;25756;-73
2022/05/14 02:56:00;;;;;;;8.50;5.30;;;;;;;10.60;75.12;100724.48;1725229;81;27450;-73
2022/05/14 03:01:12;;;;;;;9.48;5.87;;;;;;;10.64;75.19;100724.94;1722875;83;25806;-73
2022/05/14 03:03:39;;;;;;;6.85;5.30;;;;;;;10.64;75.34;100728.45;1725209;83;25534;-73
2022/05/14 03:06:06;;;;;;;11.57;5.15;;;;;;;10.63;75.36;100725.44;1721424;81;25390;-73
2022/05/14 03:08:32;;;;;;;13.13;5.60;;;;;;;10.64;75.28;100726.28;1725440;83;27461;-73
2022/05/14 03:10:58;;;;;;;8.60;5.75;;;;;;;10.66;75.25;100727.77;1719375;83;25845;-73
2022/05/14 03:13:25;;;;;;;10.18;6.00;;;;;;;10.70;75.27;100727.72;1725013;83;25941;-73
2022/05/14 03:15:51;;;;;;;8.03;4.95;;;;;;;10.76;75.24;100722.11;1725068;81;25834;-74
2022/05/14 03:18:18;;;;;;;7.78;5.45;;;;;;;10.80;75.24;100730.10;1723041;83;25910;-73
2022/05/14 03:20:44;;;;;;;9.08;5.25;;;;;;;10.81;75.22;100733.12;1725282;83;27480;-73
2022/05/14 03:23:11;;;;;;;6.95;5.17;;;;;;;10.82;75.29;100730.25;1725080;83;25832;-73
2022/05/14 03:25:38;;;;;;;8.38;4.95;;;;;;;10.88;75.28;100738.07;1725097;81;26614;-73
2022/05/14 03:28:05;;;;;;;6.70;4.80;;;;;;;10.89;75.29;100739.72;1720862;83;26562;-73
2022/05/14 03:30:32;;;;;;;6.05;4.85;;;;;;;10.90;75.24;100738.72;1725365;83;26563;-74
2022/05/14 03:32:59;;;;;;;7.08;5.22;;;;;;;10.93;75.30;100736.18;1700171;83;27435;-74
2022/05/14 03:35:26;;;;;;;8.35;5.10;;;;;;;10.94;75.28;100734.64;1725060;81;26465;-74
2022/05/14 03:37:52;;;;;;;9.18;4.90;;;;;;;10.97;75.31;100734.25;1725384;83;25760;-73
2022/05/14 03:40:19;;;;;;;8.13;4.87;;;;;;;11.01;75.40;100733.39;1725263;83;25778;-73
2022/05/14 03:42:45;;;;;;;10.53;5.62;;;;;;;11.02;75.24;100733.20;1725478;83;25347;-74
2022/05/14 03:45:11;;;;;;;8.40;5.20;;;;;;;11.04;75.34;100734.34;1725366;81;27459;-73
2022/05/14 03:47:38;;;;;;;7.58;5.10;;;;;;;11.05;75.21;100725.30;1725659;83;26233;-73
2022/05/14 03:50:05;;;;;;;8.95;5.05;;;;;;;11.10;75.21;100715.67;1714630;83;25937;-74
2022/05/14 03:52:32;;;;;;;8.55;5.20;;;;;;;11.14;75.54;100714.80;1725324;83;25477;-73
2022/05/14 03:54:58;;;;;;;10.93;5.33;;;;;;;11.13;75.35;100721.17;1725231;81;25782;-73
2022/05/14 03:57:24;;;;;;;8.05;5.10;;;;;;;11.13;75.49;100729.21;1725510;83;27453;-73
2022/05/14 03:59:50;;;;;;;10.28;5.22;;;;;;;11.11;75.49;100728.06;1725398;83;26454;-73
2022/05/14 04:02:17;;;;;;;9.75;5.50;;;;;;;11.14;75.45;100721.50;1725231;83;26055;-73
2022/05/14 04:04:44;;;;;;;10.25;5.50;;;;;;;11.17;75.60;100722.45;1725478;81;25853;-73
2022/05/14 04:07:11;;;;;;;8.40;5.12;;;;;;;11.21;75.63;100726.42;1700320;83;26047;-73
2022/05/14 04:09:37;;;;;;;12.05;5.70;;;;;;;11.23;75.57;100728.40;1719461;83;27466;-73
2022/05/14 04:12:05;;;;;;;11.73;5.92;;;;;;;11.26;75.52;100724.02;1725174;83;25729;-73
2022/05/14 04:14:31;;;;;;;11.05;5.17;;;;;;;11.30;75.63;100730.16;1700143;83;25953;-73
2022/05/14 04:16:58;;;;;;;8.20;5.78;;;;;;;11.32;75.66;100728.13;1725461;83;26299;-74
2022/05/14 04:19:25;;;;;;;10.20;5.80;;;;;;;11.32;75.57;100730.80;1725855;83;25777;-73
2022/05/14 04:21:52;;;;;;;9.13;5.12;;;;;;;11.35;75.68;100730.94;1725066;83;28890;-73
2022/05/14 04:24:19;;;;;;;10.18;5.17;;;;;;;11.36;75.63;100729.40;1725769;81;26105;-73
2022/05/14 04:26:45;;;;;;;9.35;5.55;;;;;;;11.38;75.56;100735.41;1725476;83;25807;-73
2022/05/14 04:29:12;;;;;;;11.40;6.25;;;;;;;11.41;75.69;100736.88;1725723;83;25740;-73
2022/05/14 04:31:39;;;;;;;8.85;5.95;;;;;;;11.41;75.59;100732.86;1725522;83;26655;-73
2022/05/14 04:34:06;;;;;;;11.48;5.67;;;;;;;11.45;75.65;100733.64;1696370;81;26913;-73
2022/05/14 04:36:33;;;;;;;11.48;6.47;;;;;;;11.48;75.66;100733.24;1724819;83;25770;-73
2022/05/14 04:38:59;;;;;;;12.05;6.08;;;;;;;11.52;75.72;100729.19;1723199;83;25880;-73
2022/05/14 04:41:30;;;;;;;9.55;5.30;;;;;;;11.52;75.73;100733.21;1725207;83;26062;-73
2022/05/14 04:43:54;;;;;;;8.73;5.55;;;;;;;11.54;75.78;100733.02;1724123;83;26031;-73
2022/05/14 04:46:21;;;;;;;7.80;5.60;;;;;;;11.53;75.87;100726.81;1725264;81;27468;-73
2022/05/14 04:48:48;;;;;;;9.03;5.67;;;;;;;11.56;75.89;100730.47;1725763;83;25735;-73
2022/05/14 04:51:14;;;;;;;8.23;5.70;;;;;;;11.57;75.75;100729.43;1725671;83;25784;-73
2022/05/14 04:53:40;;;;;;;11.57;6.75;;;;;;;11.57;75.80;100732.11;1722823;83;25471;-74
2022/05/14 04:56:07;;;;;;;11.15;5.70;;;;;;;11.58;75.68;100737.81;1725407;81;25770;-76
2022/05/14 04:58:34;;;;;;;13.40;6.10;;;;;;;11.62;75.67;100734.23;1725512;83;27448;-74
2022/05/14 05:01:00;;;;;;;9.08;5.15;;;;;;;11.64;75.86;100729.50;1725883;83;25946;-74
2022/05/14 05:03:28;;;;;;;12.30;5.83;;;;;;;11.66;75.66;100724.77;1725219;83;26476;-74
2022/05/14 05:05:59;;;;;;;9.63;5.20;;;;;;;11.69;75.69;100727.12;1724787;81;26580;-73
2022/05/14 05:08:30;;;;;;;6.62;4.67;;;;;;;11.71;75.46;100726.42;1725463;83;25860;-73
2022/05/14 05:10:57;;;;;;;15.70;5.60;;;;;;;11.73;75.33;100732.93;1725204;83;28257;-73
2022/05/14 05:13:27;;;;;;;9.95;5.28;;;;;;;11.76;75.37;100730.69;1725232;83;25834;-75
2022/05/14 05:15:53;;;;;;;13.98;5.15;;;;;;;11.78;75.46;100731.35;1725330;81;26322;-74
2022/05/14 05:18:20;;;;;;;10.00;4.80;;;;;;;11.81;75.29;100730.11;1722025;83;26831;-74
2022/05/14 05:20:49;;;;;;;14.73;5.33;;;;;;;11.82;75.31;100729.11;1725582;83;25809;-73
2022/05/14 05:23:19;;;;;;;12.35;5.35;;;;;;;11.83;75.37;100726.22;1725270;83;27449;-74
2022/05/14 05:25:46;;;;;;;6.87;5.00;;;;;;;11.85;75.30;100713.44;1725440;81;25871;-74
2022/05/14 05:28:13;;;;;;;12.68;6.35;;;;;;;11.89;75.29;100712.03;1725412;83;25828;-74
2022/05/14 05:30:40;;;;;;;10.70;5.47;;;;;;;11.95;75.35;100716.66;1725653;83;26385;-74
2022/05/14 05:33:16;;;;;;;8.33;5.72;;;;;;;12.00;75.27;100716.88;1725361;83;26505;-74
2022/05/14 05:35:42;;;;;;;12.88;5.62;;;;;;;12.06;75.40;100716.11;1724954;81;27471;-74
2022/05/14 05:38:09;;;;;;;7.72;5.55;;;;;;;12.10;75.42;100716.57;1695402;84;25758;-74
2022/05/14 05:40:36;;;;;;;10.75;5.35;;;;;;;12.13;75.31;100710.80;1725212;83;25757;-74
2022/05/14 05:43:05;;;;;;;8.33;5.75;;;;;;;12.16;75.17;100708.57;1725079;83;25778;-74
2022/05/14 05:45:32;;;;;;;9.58;5.47;;;;;;;12.22;75.13;100705.61;1725545;81;26752;-74
2022/05/14 05:47:59;;;;;;;9.85;5.03;;;;;;;12.24;75.04;100688.78;1721494;83;26853;-74
2022/05/14 05:50:26;;;;;;;10.98;4.97;;;;;;;12.27;75.01;100681.16;1725380;83;25856;-74
2022/05/14 05:52:54;;;;;;;12.43;5.53;;;;;;;12.35;74.99;100684.22;1725128;83;25864;-74
2022/05/14 05:58:06;;;;;;;10.13;4.87;;;;;;;12.44;74.84;100690.28;1722676;83;25809;-74
2022/05/14 06:00:33;;;;;;;11.15;4.95;;;;;;;12.55;74.97;100690.57;1725394;83;27424;-74
2022/05/14 06:02:59;;;;;;;7.00;4.62;;;;;;;12.71;75.26;100695.61;1712653;83;25868;-74
2022/05/14 06:05:27;;;;;;;9.38;5.00;;;;;;;12.81;74.67;100688.02;1711868;83;25838;-74
2022/05/14 06:07:54;;;;;;;8.13;4.40;;;;;;;12.89;74.54;100687.03;1715196;82;26589;-74
2022/05/14 06:10:22;;;;;;;8.70;5.28;;;;;;;12.97;74.42;100682.31;1707382;83;25804;-74
2022/05/14 06:12:49;;;;;;;7.87;4.30;;;;;;;13.05;74.07;100683.52;1704001;83;28498;-74
2022/05/14 06:15:18;;;;;;;8.88;4.55;;;;;;;13.17;74.24;100686.47;1725323;81;25304;-75
2022/05/14 06:17:45;;;;;;;10.50;4.78;;;;;;;13.34;73.78;100685.08;1685218;84;25799;-74
2022/05/14 06:20:15;;;;;;;11.22;4.83;;;;;;;13.48;73.98;100688.11;1706709;83;25816;-74
2022/05/14 06:22:42;;;;;;;5.65;4.65;;;;;;;13.61;73.51;100684.10;1713114;83;25863;-74
2022/05/14 06:25:10;;;;;;;11.68;4.58;;;;;;;13.69;72.98;100692.48;1715021;81;28274;-74
2022/05/14 06:27:36;;;;;;;9.70;4.42;;;;;;;13.75;72.64;100692.50;1723644;83;25920;-74
2022/05/14 06:30:04;;;;;;;6.95;4.33;;;;;;;13.82;72.72;100696.04;1694675;84;25819;-74
2022/05/14 06:32:30;;;;;;;12.58;5.10;;;;;;;13.91;72.74;100702.05;1715585;83;25845;-74
2022/05/14 06:34:56;;;;;;;12.88;4.83;;;;;;;13.97;72.40;100704.43;1715205;81;26639;-75
2022/05/14 06:37:23;;;;;;;13.13;4.37;;;;;;;14.01;72.11;100705.16;1711318;83;28283;-74
2022/05/14 06:39:49;;;;;;;8.53;5.08;;;;;;;14.03;71.60;100704.98;1701413;83;26450;-74
2022/05/14 06:42:16;;;;;;;8.78;4.58;;;;;;;14.05;71.64;100700.22;1713610;83;25930;-74
2022/05/14 06:44:42;;;;;;;8.88;4.17;;;;;;;14.08;71.27;100703.31;1708426;83;26398;-74
2022/05/14 06:47:09;;;;;;;7.20;4.42;;;;;;;14.12;71.00;100708.59;1713492;83;25943;-74
2022/05/14 06:49:35;;;;;;;10.63;4.40;;;;;;;14.16;70.83;100706.30;1707121;83;27453;-74
2022/05/14 06:52:04;;;;;;;8.73;5.05;;;;;;;14.20;70.87;100704.87;1714076;83;25898;-74
2022/05/14 06:54:32;;;;;;;9.83;4.50;;;;;;;14.21;70.51;100702.48;1724727;81;25808;-74
2022/05/14 06:57:02;;;;;;;6.33;4.67;;;;;;;14.24;69.92;100702.08;1713641;83;27064;-74
2022/05/14 06:59:28;;;;;;;10.08;4.95;;;;;;;14.31;70.60;100694.83;1713038;83;25741;-74
2022/05/14 07:01:55;;;;;;;11.97;4.85;;;;;;;14.41;70.86;100689.86;1710934;83;27432;-74
2022/05/14 07:07:06;;;;;;;7.00;4.22;;;;;;;14.73;70.32;100685.44;1714865;83;26432;-75
2022/05/14 07:09:33;;;;;;;10.03;4.95;;;;;;;14.90;69.42;100678.03;1722685;83;25824;-74
2022/05/14 07:12:05;;;;;;;11.25;4.58;;;;;;;14.97;68.66;100669.38;1696169;83;25752;-74
2022/05/14 07:14:33;;;;;;;11.25;4.20;;;;;;;15.08;68.61;100663.31;1698925;83;28305;-74
2022/05/14 07:16:59;;;;;;;10.75;4.12;;;;;;;15.22;68.11;100661.39;1714916;83;26460;-74
2022/05/14 07:19:26;;;;;;;11.00;4.92;;;;;;;15.34;67.57;100665.06;1709964;83;25944;-74
2022/05/14 07:21:54;;;;;;;12.47;4.62;;;;;;;15.49;67.77;100657.53;1712352;83;25936;-74
2022/05/14 07:24:28;;;;;;;7.42;3.95;;;;;;;15.60;65.93;100667.64;1712445;81;25899;-74
2022/05/14 07:26:57;;;;;;;6.53;4.08;;;;;;;15.64;66.80;100657.22;1715173;83;27484;-74
2022/05/14 07:29:26;;;;;;;6.42;4.12;;;;;;;15.72;66.80;100672.64;1724896;83;26411;-74
2022/05/14 07:31:53;;;;;;;10.18;4.22;;;;;;;15.84;66.47;100667.37;1712898;83;25796;-74
2022/05/14 07:34:20;;;;;;;9.33;3.98;;;;;;;15.97;65.56;100668.08;1715256;83;25792;-75
2022/05/14 07:36:52;;;;;;;10.48;4.10;;;;;;;16.07;65.13;100667.08;1719537;83;25796;-74
2022/05/14 07:39:22;;;;;;;7.85;3.50;;;;;;;16.10;64.27;100673.93;1721258;83;27470;-74
2022/05/14 07:41:53;;;;;;;8.33;3.77;;;;;;;16.08;63.23;100670.07;1717473;83;25836;-75
2022/05/14 07:44:24;;;;;;;7.12;4.05;;;;;;;16.05;63.44;100675.10;1716880;83;25762;-74
2022/05/14 07:46:52;;;;;;;7.20;3.70;;;;;;;15.96;62.61;100677.77;1690881;84;26518;-74
2022/05/14 07:49:21;;;;;;;7.28;3.65;;;;;;;15.88;62.57;100672.64;1722899;83;26012;-74
2022/05/14 07:51:51;;;;;;;7.62;3.95;;;;;;;15.79;62.38;100673.95;1681278;84;27470;-75
2022/05/14 07:54:17;;;;;;;9.83;3.75;;;;;;;15.73;62.76;100664.86;1688487;84;25978;-74
2022/05/14 07:56:43;;;;;;;10.75;3.70;;;;;;;15.68;62.98;100663.32;1717360;83;25735;-74
2022/05/14 07:59:12;;;;;;;5.75;3.52;;;;;;;15.66;62.99;100666.77;1673394;84;26537;-74
2022/05/14 08:01:40;;;;;;;9.45;3.95;;;;;;;15.62;62.38;100671.47;1719704;83;26417;-74
2022/05/14 08:04:07;;;;;;;11.50;4.35;;;;;;;15.56;62.88;100670.98;1690766;84;26920;-74
2022/05/14 08:06:34;;;;;;;6.85;4.25;;;;;;;15.48;62.70;100676.14;1707102;83;26622;-74
2022/05/14 08:09:03;;;;;;;11.63;3.83;;;;;;;15.40;62.38;100673.63;1706216;83;26549;-74
2022/05/14 08:11:31;;;;;;;13.05;4.90;;;;;;;15.33;62.65;100685.02;1715019;83;26629;-74
2022/05/14 08:13:59;;;;;;;9.88;3.83;;;;;;;15.23;63.08;100688.16;1721111;83;25802;-74
2022/05/14 08:16:26;;;;;;;10.23;4.10;;;;;;;15.19;63.26;100690.98;1717802;81;27451;-74
2022/05/14 08:18:52;;;;;;;9.30;4.00;;;;;;;15.17;63.13;100693.58;1717486;83;25770;-74
2022/05/14 08:26:51;;;;;;;6.90;4.20;;;;;;;15.21;64.16;100678.10;1716123;83;25725;-74
2022/05/14 08:29:19;;;;;;;8.25;5.08;;;;;;;15.28;64.11;100676.72;1721317;83;27448;-74
2022/05/14 08:31:46;;;;;;;7.97;3.77;;;;;;;15.32;64.02;100682.83;1717760;83;25776;-74
2022/05/14 08:34:12;;;;;;;10.98;4.87;;;;;;;15.37;64.01;100680.83;1693240;84;25779;-74
2022/05/14 08:36:38;;;;;;;11.57;4.37;;;;;;;15.40;63.09;100675.82;1716980;83;26501;-74
2022/05/14 08:39:05;;;;;;;7.92;3.05;;;;;;;15.47;63.23;100672.28;1719015;83;25295;-74
2022/05/14 08:41:35;;;;;;;13.53;2.95;;;;;;;15.54;62.57;100679.83;1717236;83;28019;-74
2022/05/14 08:44:12;;;;;;;13.43;3.00;;;;;;;15.56;61.68;100672.34;1710109;83;26122;-74
2022/05/14 08:46:40;;;;;;;8.73;2.35;;;;;;;15.57;61.28;100678.06;1702792;83;26481;-74
2022/05/14 08:49:17;;;;;;;7.90;2.60;;;;;;;15.52;59.43;100685.45;1704095;83;25832;-74
2022/05/14 08:51:48;;;;;;;9.50;2.95;;;;;;;15.46;58.33;100683.63;1699572;83;25297;-75
2022/05/14 08:54:15;;;;;;;6.87;2.20;;;;;;;15.41;57.74;100666.69;1658998;86;27472;-74
2022/05/14 08:56:49;;;;;;;8.68;2.47;;;;;;;15.33;57.17;100677.72;1714021;83;25810;-74
2022/05/14 08:59:27;;;;;;;6.90;2.17;;;;;;;15.36;57.13;100685.91;1707520;83;25788;-75
2022/05/14 09:02:07;;;;;;;7.65;2.45;;;;;;;15.38;57.33;100681.95;1715527;83;25834;-74
2022/05/14 09:04:33;;;;;;;7.10;1.98;;;;;;;15.42;57.90;100679.12;1711283;81;25955;-74
2022/05/14 09:07:00;;;;;;;8.35;2.37;;;;;;;15.48;57.58;100683.41;1725459;83;27546;-74
2022/05/14 09:09:26;;;;;;;8.58;2.83;;;;;;;15.53;57.50;100673.59;1711313;83;25821;-74
2022/05/14 09:12:00;;;;;;;8.05;2.10;;;;;;;15.59;55.93;100671.92;1703108;83;25388;-74
2022/05/14 09:14:34;;;;;;;7.47;3.80;;;;;;;15.65;56.01;100674.58;1724265;81;25833;-75
2022/05/14 09:17:15;;;;;;;8.58;4.65;;;;;;;15.78;55.70;100669.61;1724504;83;25710;-74
2022/05/14 09:19:44;;;;;;;16.07;4.40;;;;;;;15.88;53.81;100661.31;1724131;83;28286;-75
2022/05/14 09:22:25;;;;;;;25.10;11.45;;;;;;;16.09;51.97;100662.80;1723566;83;26120;-75
2022/05/14 09:25:02;;;;;;;12.98;5.53;;;;;;;16.26;53.97;100665.77;1704435;83;25758;-74
2022/05/14 09:27:55;;;;;;;11.33;5.15;;;;;;;16.46;53.72;100646.13;1715107;83;25850;-74
2022/05/14 09:30:43;;;;;;;10.05;2.60;;;;;;;16.64;53.38;100650.22;1715174;83;26028;-74
2022/05/14 09:33:27;;;;;;;16.55;8.25;;;;;;;16.82;52.81;100653.78;1714853;83;27650;-74
2022/05/14 09:35:58;;;;;;;13.15;4.55;;;;;;;16.87;53.83;100656.61;1712996;81;26298;-74
2022/05/14 09:38:27;;;;;;;7.50;2.90;;;;;;;16.98;53.00;100655.58;1711600;83;25804;-74
2022/05/14 09:40:58;;;;;;;10.18;3.30;;;;;;;16.98;53.31;100650.97;1717140;83;25998;-74
2022/05/14 09:43:35;;;;;;;9.28;2.67;;;;;;;16.99;52.45;100649.92;1709604;83;25805;-74
2022/05/14 09:48:55;;;;;;;8.80;4.10;;;;;;;17.14;52.67;100644.95;1717957;79;26742;-74
2022/05/14 09:51:51;;;;;;;8.50;3.40;;;;;;;17.21;52.75;100649.75;1731702;81;26436;-74
2022/05/14 09:54:50;;;;;;;7.20;2.75;;;;;;;17.22;50.70;100644.63;1747082;81;25850;-75
2022/05/14 09:57:40;;;;;;;8.35;3.95;;;;;;;17.22;50.97;100643.27;1741687;81;25930;-74
2022/05/14 10:00:39;;;;;;;10.58;2.90;;;;;;;17.32;50.69;100637.31;1732637;80;27477;31
2022/05/14 10:03:45;;;;;;;12.90;2.70;;;;;;;17.43;50.72;100641.41;1633572;86;25857;-75
2022/05/14 10:06:36;;;;;;;11.40;2.50;;;;;;;17.65;47.36;100631.74;1627661;86;25796;-75
2022/05/14 10:09:25;;;;;;;9.28;2.27;;;;;;;17.70;46.96;100634.59;1617914;86;25973;-75
2022/05/14 10:12:12;;;;;;;9.55;2.50;;;;;;;17.68;45.83;100637.23;1612465;87;25986;-75
2022/05/14 10:15:05;;;;;;;8.53;2.55;;;;;;;17.66;46.27;100629.86;1615000;87;28502;-75
2022/05/14 10:18:14;;;;;;;21.42;2.60;;;;;;;17.68;45.38;100635.32;1622460;87;25835;-75
2022/05/14 10:21:09;;;;;;;7.80;2.10;;;;;;;17.63;45.55;100638.44;1619993;87;26621;-75
2022/05/14 10:27:04;;;;;;;14.98;2.85;;;;;;;17.45;46.28;100635.78;1644405;85;25764;-76
2022/05/14 10:30:03;;;;;;;10.15;2.70;;;;;;;17.35;45.58;100637.67;1612744;87;28339;-74
2022/05/14 10:32:32;;;;;;;8.23;2.27;;;;;;;17.33;46.77;100630.83;1617563;86;26471;-75
2022/05/14 10:35:11;;;;;;;7.17;2.30;;;;;;;17.44;46.87;100632.77;1615634;87;25815;-75
2022/05/14 10:37:51;;;;;;;8.40;1.82;;;;;;;17.51;46.15;100628.91;1625080;86;26638;-75
2022/05/14 10:40:23;;;;;;;11.18;2.40;;;;;;;17.69;45.90;100619.38;1619621;87;25968;-75
2022/05/14 10:43:16;;;;;;;9.93;2.58;;;;;;;17.88;46.47;100626.08;1612900;87;28306;-75
2022/05/14 10:45:47;;;;;;;7.33;2.35;;;;;;;18.02;46.53;100628.86;1645533;87;25954;-74
2022/05/14 10:48:19;;;;;;;11.75;2.58;;;;;;;18.07;46.08;100626.28;1644165;87;25808;-75
2022/05/14 10:50:46;;;;;;;6.70;2.10;;;;;;;17.98;46.30;100624.45;1599576;88;25960;-75
2022/05/14 10:53:13;;;;;;;8.98;2.20;;;;;;;17.89;45.70;100628.55;1583643;89;25796;-75
2022/05/14 10:55:50;;;;;;;7.78;2.20;;;;;;;17.83;45.56;100617.30;1597573;87;27466;-74
2022/05/14 10:58:35;;;;;;;5.90;1.92;;;;;;;17.82;46.02;100622.41;1613624;87;25977;-75
2022/05/14 11:00:53;;;;;;;6.87;2.75;;;;;;;17.82;45.14;100628.34;1580564;89;26597;-74
2022/05/14 11:03:26;;;;;;;7.00;2.12;;;;;;;17.85;46.97;100615.70;1586343;88;26587;-75
2022/05/14 11:06:06;;;;;;;6.08;2.12;;;;;;;17.91;44.33;100616.94;1594611;89;25846;-75
2022/05/14 11:08:46;;;;;;;6.40;2.00;;;;;;;17.95;44.68;100616.77;1588550;89;27561;-74
2022/05/14 11:11:29;;;;;;;10.53;2.75;;;;;;;17.98;45.58;100624.97;1590784;88;25799;-75
2022/05/14 11:14:03;;;;;;;5.65;1.80;;;;;;;17.94;45.43;100621.88;1594135;89;25864;-76
2022/05/14 11:16:47;;;;;;;11.43;2.60;;;;;;;17.89;45.21;100623.13;1561638;87;45147;-75
2022/05/14 11:19:32;;;;;;;10.75;2.72;;;;;;;18.10;44.42;100628.50;1607064;89;25737;-75
2022/05/14 11:22:01;;;;;;;11.57;2.40;;;;;;;17.99;44.97;100630.66;1581193;90;28291;-75
2022/05/14 11:24:40;;;;;;;5.22;1.85;;;;;;;17.89;43.98;100627.20;1607268;87;25812;-75
2022/05/14 11:27:09;;;;;;;9.83;2.40;;;;;;;17.84;43.67;100637.06;1607129;89;25836;-75
2022/05/14 11:29:58;;;;;;;8.25;2.00;;;;;;;17.82;45.27;100637.83;1604086;89;26252;-75
2022/05/14 11:32:25;;;;;;;6.35;2.02;;;;;;;17.77;45.04;100634.45;1586433;89;25806;-75
2022/05/14 11:34:56;;;;;;;12.07;2.00;;;;;;;17.84;46.52;100637.06;1586671;89;28292;-75
2022/05/14 11:37:33;;;;;;;6.37;1.70;;;;;;;17.94;45.56;100639.50;1583837;89;25791;-75
2022/05/14 11:40:20;;;;;;;4.33;1.65;;;;;;;17.88;44.78;100639.63;1585910;88;26480;-75
2022/05/14 11:42:54;;;;;;;9.58;2.40;;;;;;;17.75;44.80;100645.25;1586739;89;26603;-75
2022/05/14 11:45:25;;;;;;;9.60;1.80;;;;;;;17.62;45.13;100646.29;1603340;88;25883;-75
2022/05/14 11:48:00;;;;;;;4.92;1.90;;;;;;;17.57;44.52;100653.75;1626865;87;27474;-75
2022/05/14 11:50:35;;;;;;;12.95;2.70;;;;;;;17.53;45.84;100649.02;1583704;89;26093;-75
2022/05/14 11:53:28;;;;;;;6.05;1.67;;;;;;;17.62;45.91;100651.70;1584067;88;26032;-75
2022/05/14 11:56:00;;;;;;;9.90;2.20;;;;;;;17.70;45.58;100645.95;1582413;89;25851;-75
2022/05/14 11:58:52;;;;;;;5.70;1.77;;;;;;;17.73;45.04;100656.86;1621885;87;25752;-75
2022/05/14 12:01:24;;;;;;;8.78;1.82;;;;;;;17.74;45.32;100660.68;1594904;88;27666;-74
2022/05/14 12:03:52;;;;;;;7.12;1.95;;;;;;;17.79;44.94;100663.53;1586762;89;25951;-75